createdAt,value
2023-03-29T00:00:08.171Z,79.42
2023-03-29T00:02:39.065Z,82.41
2023-03-29T00:05:06.854Z,82.06
2023-03-29T00:07:33.788Z,84.63
2023-03-29T00:10:01.629Z,85.47
2023-03-29T00:12:29.042Z,85.80
2023-03-29T00:14:56.083Z,85.71
2023-03-29T00:17:23.131Z,86.27
2023-03-29T00:19:50.072Z,86.56
2023-03-29T00:22:17.004Z,85.36
2023-03-29T00:24:43.884Z,85.98
2023-03-29T00:27:10.670Z,85.91
2023-03-29T00:29:37.828Z,84.67
2023-03-29T00:32:04.987Z,85.66
2023-03-29T00:34:31.936Z,84.96
2023-03-29T00:36:59.031Z,85.57
2023-03-29T00:39:28.113Z,85.66
2023-03-29T00:41:56.278Z,85.74
2023-03-29T00:45:00.687Z,85.62
2023-03-29T00:47:46.846Z,85.79
2023-03-29T00:50:16.484Z,86.21
2023-03-29T00:52:55.034Z,86.16
2023-03-29T00:55:24.043Z,86.45
2023-03-29T00:57:53.722Z,86.92
2023-03-29T01:00:24.984Z,86.29
2023-03-29T01:02:59.760Z,87.53
2023-03-29T01:05:33.333Z,87.74
2023-03-29T01:08:11.785Z,87.26
2023-03-29T01:10:47.359Z,88.13
2023-03-29T01:13:20.965Z,87.92
2023-03-29T01:15:48.302Z,87.84
2023-03-29T01:18:16.839Z,88.91
2023-03-29T01:20:51.008Z,88.62
2023-03-29T01:23:58.412Z,87.92
2023-03-29T01:26:55.602Z,89.18
2023-03-29T01:29:32.789Z,88.48
2023-03-29T01:32:14.530Z,89.51
2023-03-29T01:34:57.777Z,90.24
2023-03-29T01:37:32.495Z,89.46
2023-03-29T01:40:00.819Z,91.26
2023-03-29T01:42:46.718Z,91.21
2023-03-29T01:45:22.784Z,91.08
2023-03-29T01:48:07.959Z,91.57
2023-03-29T01:50:44.269Z,91.52
2023-03-29T01:53:36.479Z,91.11
2023-03-29T01:56:17.365Z,91.32
2023-03-29T01:58:48.777Z,92.11
2023-03-29T02:01:20.391Z,91.43
2023-03-29T02:03:50.908Z,90.38
2023-03-29T02:06:20.852Z,88.29
2023-03-29T02:08:48.786Z,87.73
2023-03-29T02:11:16.046Z,88.34
2023-03-29T02:13:43.129Z,87.34
2023-03-29T02:16:12.585Z,86.64
2023-03-29T02:18:43.323Z,85.70
2023-03-29T02:21:16.544Z,83.82
2023-03-29T02:23:46.748Z,84.55
2023-03-29T02:26:15.405Z,84.31
2023-03-29T02:28:43.090Z,82.48
2023-03-29T02:31:20.328Z,83.36
2023-03-29T02:34:04.788Z,83.77
2023-03-29T02:36:40.544Z,82.62
2023-03-29T02:39:10.274Z,83.30
2023-03-29T02:41:38.991Z,83.08
2023-03-29T02:44:08.325Z,82.32
2023-03-29T02:46:38.197Z,83.34
2023-03-29T02:49:05.409Z,82.22
2023-03-29T02:51:34.309Z,81.96
2023-03-29T02:54:10.049Z,82.15
2023-03-29T02:56:45.483Z,82.22
2023-03-29T02:59:12.870Z,80.91
2023-03-29T03:01:44.946Z,81.24
2023-03-29T03:04:13.401Z,82.85
2023-03-29T03:06:40.842Z,83.63
2023-03-29T03:09:10.701Z,85.89
2023-03-29T03:11:40.440Z,86.68
2023-03-29T03:14:08.526Z,86.50
2023-03-29T03:16:36.257Z,87.75
2023-03-29T03:21:49.769Z,87.30
2023-03-29T03:24:17.801Z,88.55
2023-03-29T03:26:46.401Z,88.23
2023-03-29T03:29:15.619Z,87.33
2023-03-29T03:32:02.542Z,87.93
2023-03-29T03:34:47.122Z,88.41
2023-03-29T03:37:15.571Z,88.77
2023-03-29T03:39:42.455Z,89.20
2023-03-29T03:42:10.563Z,89.12
2023-03-29T03:44:42.029Z,88.57
2023-03-29T03:47:37.789Z,89.58
2023-03-29T03:50:19.350Z,89.57
2023-03-29T03:52:46.628Z,88.94
2023-03-29T03:55:14.413Z,89.72
2023-03-29T03:57:48.035Z,89.08
2023-03-29T04:00:21.418Z,89.40
2023-03-29T04:03:07.332Z,89.04
2023-03-29T04:05:40.270Z,89.50
2023-03-29T04:08:08.489Z,89.33
2023-03-29T04:10:59.934Z,88.77
2023-03-29T04:13:34.444Z,89.16
2023-03-29T04:16:36.945Z,89.77
2023-03-29T04:19:21.828Z,88.84
2023-03-29T04:21:49.641Z,89.09
2023-03-29T04:24:17.354Z,89.25
2023-03-29T04:26:55.601Z,89.07
2023-03-29T04:29:24.370Z,88.78
2023-03-29T04:31:58.267Z,88.53
2023-03-29T04:34:44.231Z,87.98
2023-03-29T04:37:11.586Z,87.69
2023-03-29T04:39:44.962Z,87.27
2023-03-29T04:42:13.077Z,87.37
2023-03-29T04:44:43.811Z,86.52
2023-03-29T04:47:13.434Z,86.64
2023-03-29T04:49:51.827Z,86.69
2023-03-29T04:52:33.425Z,83.00
2023-03-29T04:55:02.591Z,84.48
2023-03-29T04:57:48.243Z,84.01
2023-03-29T05:00:21.307Z,80.85
2023-03-29T05:03:10.161Z,81.77
2023-03-29T05:05:41.665Z,80.12
2023-03-29T05:08:09.626Z,79.53
2023-03-29T05:10:54.846Z,82.09
2023-03-29T05:13:22.226Z,80.66
2023-03-29T05:15:49.188Z,78.72
2023-03-29T05:18:16.233Z,78.40
2023-03-29T05:20:43.146Z,76.24
2023-03-29T05:23:14.707Z,72.58
2023-03-29T05:26:00.415Z,75.23
2023-03-29T05:28:27.283Z,72.75
2023-03-29T05:31:02.354Z,67.28
2023-03-29T05:33:31.026Z,69.50
2023-03-29T05:36:04.256Z,71.15
2023-03-29T05:38:32.910Z,66.01
2023-03-29T05:41:01.474Z,70.41
2023-03-29T05:43:48.730Z,71.09
2023-03-29T05:46:16.562Z,66.91
2023-03-29T05:48:49.201Z,66.68
2023-03-29T05:51:19.006Z,68.58
2023-03-29T05:53:45.959Z,64.71
2023-03-29T05:56:16.092Z,60.52
2023-03-29T05:58:43.579Z,65.78
2023-03-29T06:01:14.842Z,67.90
2023-03-29T06:03:56.461Z,68.53
2023-03-29T06:06:29.572Z,73.81
2023-03-29T06:08:59.193Z,73.71
2023-03-29T06:11:35.063Z,68.99
2023-03-29T06:14:25.004Z,66.68
2023-03-29T06:17:05.491Z,64.16
2023-03-29T06:19:32.569Z,58.53
2023-03-29T06:21:59.366Z,56.96
2023-03-29T06:24:28.860Z,62.82
2023-03-29T06:27:02.158Z,58.92
2023-03-29T06:29:30.412Z,58.44
2023-03-29T06:31:57.396Z,60.54
2023-03-29T06:34:46.902Z,61.44
2023-03-29T06:37:32.720Z,54.71
2023-03-29T06:40:21.475Z,53.66
2023-03-29T06:42:49.180Z,56.46
2023-03-29T06:45:42.792Z,54.34
2023-03-29T06:48:19.688Z,51.04
2023-03-29T06:50:49.075Z,50.17
2023-03-29T06:53:17.271Z,52.41
2023-03-29T06:55:52.784Z,53.64
2023-03-29T06:58:38.016Z,48.50
2023-03-29T07:01:15.700Z,45.57
2023-03-29T07:03:49.436Z,44.16
2023-03-29T07:06:21.126Z,44.28
2023-03-29T07:08:50.655Z,45.60
2023-03-29T07:11:27.758Z,46.45
2023-03-29T07:13:57.507Z,44.01
2023-03-29T07:16:26.000Z,44.15
2023-03-29T07:19:19.820Z,40.75
2023-03-29T07:21:57.155Z,43.20
2023-03-29T07:40:24.212Z,55.67
2023-03-29T07:42:59.034Z,51.06
2023-03-29T07:45:30.183Z,50.89
2023-03-29T07:48:04.970Z,50.79
2023-03-29T07:51:08.053Z,47.04
2023-03-29T07:53:57.682Z,41.83
2023-03-29T07:56:44.849Z,49.62
2023-03-29T07:59:19.163Z,45.66
2023-03-29T08:01:53.958Z,41.57
2023-03-29T08:04:34.865Z,42.12
2023-03-29T08:07:21.653Z,44.46
2023-03-29T08:10:04.074Z,41.36
2023-03-29T08:12:47.541Z,41.88
2023-03-29T08:15:16.727Z,41.95
2023-03-29T08:17:44.063Z,39.79
2023-03-29T08:20:14.116Z,38.90
2023-03-29T08:22:43.565Z,41.32
2023-03-29T08:25:12.227Z,45.91
2023-03-29T08:27:44.932Z,41.45
2023-03-29T08:30:15.005Z,40.89
2023-03-29T08:32:42.261Z,45.15
2023-03-29T08:35:10.231Z,40.33
2023-03-29T08:37:43.554Z,40.00
2023-03-29T08:40:21.663Z,41.39
2023-03-29T08:43:18.459Z,46.44
2023-03-29T08:46:17.655Z,44.39
2023-03-29T08:48:52.771Z,44.61
2023-03-29T08:51:27.879Z,48.36
2023-03-29T08:54:16.946Z,46.00
2023-03-29T08:57:12.297Z,43.54
2023-03-29T08:59:44.514Z,39.98
2023-03-29T09:02:19.302Z,40.36
2023-03-29T09:04:52.548Z,37.07
2023-03-29T09:07:28.216Z,35.15
2023-03-29T09:09:56.235Z,34.09
2023-03-29T09:13:24.221Z,37.36
2023-03-29T09:16:14.990Z,34.46
2023-03-29T09:19:22.493Z,34.60
2023-03-29T09:22:14.988Z,41.30
2023-03-29T09:25:13.738Z,38.99
2023-03-29T09:27:47.447Z,39.78
2023-03-29T09:30:27.935Z,42.17
2023-03-29T09:33:06.039Z,42.45
2023-03-29T09:35:53.949Z,43.78
2023-03-29T09:38:22.408Z,44.53
2023-03-29T09:41:00.414Z,46.74
2023-03-29T09:43:47.526Z,45.87
2023-03-29T09:46:25.431Z,48.33
2023-03-29T09:48:55.449Z,51.87
2023-03-29T09:51:27.165Z,52.16
2023-03-29T09:53:57.180Z,53.25
2023-03-29T09:56:45.639Z,54.91
2023-03-29T09:59:16.039Z,48.39
2023-03-29T10:01:46.708Z,48.08
2023-03-29T10:04:16.972Z,48.51
2023-03-29T10:06:52.651Z,47.51
2023-03-29T10:09:22.779Z,42.84
2023-03-29T10:12:00.181Z,35.47
2023-03-29T10:14:30.117Z,35.14
2023-03-29T10:16:57.753Z,36.93
2023-03-29T10:19:34.541Z,35.97
2023-03-29T10:22:05.054Z,37.76
2023-03-29T10:24:31.977Z,36.80
2023-03-29T10:27:10.669Z,32.20
2023-03-29T10:29:41.277Z,34.53
2023-03-29T10:32:43.535Z,36.51
2023-03-29T10:35:24.165Z,39.61
2023-03-29T10:37:53.476Z,40.82
2023-03-29T10:40:30.932Z,39.02
2023-03-29T10:43:19.686Z,41.62
2023-03-29T10:45:52.842Z,42.33
2023-03-29T10:48:25.683Z,43.25
2023-03-29T10:50:53.279Z,45.80
2023-03-29T10:53:27.117Z,45.89
2023-03-29T10:56:13.846Z,37.69
2023-03-29T10:58:41.232Z,33.35
2023-03-29T11:01:18.494Z,31.32
2023-03-29T11:03:52.986Z,34.76
2023-03-29T11:06:33.120Z,38.26
2023-03-29T11:09:05.716Z,35.03
2023-03-29T11:11:41.191Z,35.12
2023-03-29T11:14:28.220Z,40.60
2023-03-29T11:16:57.756Z,42.40
2023-03-29T11:19:51.891Z,43.46
2023-03-29T11:22:44.696Z,45.73
2023-03-29T11:25:24.732Z,47.06
2023-03-29T11:28:10.905Z,45.44
2023-03-29T11:30:59.085Z,44.40
2023-03-29T11:33:56.369Z,41.60
2023-03-29T11:36:58.675Z,40.56
2023-03-29T11:39:43.607Z,41.22
2023-03-29T11:42:20.366Z,41.58
2023-03-29T11:44:54.643Z,38.40
2023-03-29T11:47:28.047Z,34.96
2023-03-29T11:50:10.584Z,33.73
2023-03-29T11:52:43.695Z,32.65
2023-03-29T11:55:19.630Z,32.68
2023-03-29T11:57:49.408Z,33.44
2023-03-29T12:00:22.223Z,35.83
2023-03-29T12:02:53.485Z,37.21
2023-03-29T12:05:24.462Z,39.72
2023-03-29T12:08:01.676Z,40.52
2023-03-29T12:10:43.174Z,40.58
2023-03-29T12:13:27.237Z,40.91
2023-03-29T12:16:08.986Z,40.87
2023-03-29T12:18:45.558Z,40.21
2023-03-29T12:21:22.303Z,38.82
2023-03-29T12:23:51.985Z,38.93
2023-03-29T12:26:57.886Z,39.11
2023-03-29T12:29:52.213Z,39.83
2023-03-29T12:32:38.608Z,39.75
2023-03-29T12:36:03.185Z,39.78
2023-03-29T12:39:18.861Z,41.50
2023-03-29T12:42:17.160Z,52.99
2023-03-29T12:45:00.736Z,54.78
2023-03-29T12:47:44.234Z,56.52
2023-03-29T12:50:33.992Z,57.70
2023-03-29T12:53:19.081Z,59.86
2023-03-29T12:55:55.984Z,61.07
2023-03-29T12:58:27.880Z,62.57
2023-03-29T13:01:24.359Z,70.63
2023-03-29T13:03:57.808Z,75.78
2023-03-29T13:06:31.073Z,81.16
2023-03-29T13:09:03.679Z,83.99
2023-03-29T13:11:37.736Z,84.71
2023-03-29T13:14:16.891Z,87.45
2023-03-29T13:16:44.085Z,89.42
2023-03-29T13:19:29.572Z,92.41
2023-03-29T13:22:42.468Z,92.21
2023-03-29T13:25:28.021Z,88.92
2023-03-29T13:28:25.807Z,87.28
2023-03-29T13:30:59.685Z,85.63
2023-03-29T13:33:49.872Z,87.23
2023-03-29T13:37:06.860Z,85.44
2023-03-29T13:39:40.450Z,87.17
2023-03-29T13:42:25.426Z,86.25
2023-03-29T13:44:53.935Z,82.13
2023-03-29T13:47:30.161Z,83.28
2023-03-29T13:50:05.418Z,82.00
2023-03-29T13:52:41.216Z,81.60
2023-03-29T13:55:13.924Z,79.18
2023-03-29T13:58:04.044Z,79.40
2023-03-29T14:00:47.293Z,77.53
2023-03-29T14:03:16.630Z,75.89
2023-03-29T14:05:57.216Z,75.28
2023-03-29T14:08:44.347Z,77.01
2023-03-29T14:11:24.669Z,76.13
2023-03-29T14:13:59.784Z,73.41
2023-03-29T14:16:33.275Z,73.39
2023-03-29T14:19:04.191Z,71.18
2023-03-29T14:21:31.208Z,71.61
2023-03-29T14:24:02.426Z,73.90
2023-03-29T14:26:34.749Z,74.97
2023-03-29T14:29:04.468Z,76.07
2023-03-29T14:31:37.942Z,74.88
2023-03-29T14:34:07.916Z,74.53
2023-03-29T14:36:36.629Z,73.15
2023-03-29T14:39:21.518Z,73.45
2023-03-29T14:41:51.215Z,74.12
2023-03-29T14:44:20.046Z,74.13
2023-03-29T14:46:49.710Z,74.12
2023-03-29T14:49:18.407Z,74.63
2023-03-29T14:51:47.280Z,73.62
2023-03-29T14:54:29.210Z,73.75
2023-03-29T14:56:56.330Z,72.85
2023-03-29T14:59:37.151Z,72.78
2023-03-29T15:02:04.865Z,72.98
2023-03-29T15:04:36.012Z,73.20
2023-03-29T15:07:05.095Z,72.12
2023-03-29T15:09:34.769Z,73.96
2023-03-29T15:12:03.502Z,77.48
2023-03-29T15:14:34.020Z,78.30
2023-03-29T15:17:16.869Z,78.59
2023-03-29T15:19:43.837Z,77.28
2023-03-29T15:22:11.494Z,74.69
2023-03-29T15:24:47.616Z,73.78
2023-03-29T15:27:19.726Z,74.37
2023-03-29T15:29:47.957Z,73.15
2023-03-29T15:32:22.920Z,71.05
2023-03-29T15:35:05.122Z,69.16
2023-03-29T15:37:32.552Z,70.25
2023-03-29T15:39:59.769Z,70.54
2023-03-29T15:42:26.719Z,70.90
2023-03-29T15:44:54.949Z,71.19
2023-03-29T15:47:22.235Z,71.10
2023-03-29T15:49:49.368Z,71.60
2023-03-29T15:52:16.821Z,72.29
2023-03-29T15:54:43.990Z,73.61
2023-03-29T15:57:15.074Z,73.63
2023-03-29T15:59:43.310Z,74.21
2023-03-29T16:02:16.106Z,74.74
2023-03-29T16:04:43.390Z,77.21
2023-03-29T16:07:14.402Z,77.70
2023-03-29T16:09:42.078Z,77.81
2023-03-29T16:12:10.312Z,78.98
2023-03-29T16:14:37.350Z,79.45
2023-03-29T16:17:04.767Z,79.66
2023-03-29T16:19:33.863Z,80.48
2023-03-29T16:22:03.494Z,80.95
2023-03-29T16:24:32.211Z,80.97
2023-03-29T16:27:00.044Z,80.33
2023-03-29T16:29:27.507Z,80.03
2023-03-29T16:31:55.026Z,80.50
2023-03-29T16:34:23.102Z,79.92
2023-03-29T16:36:50.847Z,75.96
2023-03-29T16:39:18.443Z,74.18
2023-03-29T16:41:48.531Z,77.04
2023-03-29T16:44:23.946Z,77.05
2023-03-29T16:46:53.975Z,78.75
2023-03-29T16:49:21.733Z,80.69
2023-03-29T16:51:48.847Z,81.27
2023-03-29T16:54:17.390Z,81.64
2023-03-29T16:56:44.558Z,83.42
2023-03-29T16:59:12.147Z,85.42
2023-03-29T17:01:40.858Z,85.54
2023-03-29T17:04:08.442Z,86.12
2023-03-29T17:06:36.104Z,87.87
2023-03-29T17:09:03.441Z,88.13
2023-03-29T17:11:30.507Z,86.88
2023-03-29T17:13:57.409Z,86.91
2023-03-29T17:16:24.427Z,87.09
2023-03-29T17:18:51.395Z,87.25
2023-03-29T17:21:18.283Z,87.76
2023-03-29T17:23:45.072Z,88.57
2023-03-29T17:26:12.066Z,88.78
2023-03-29T17:28:39.250Z,89.09
2023-03-29T17:31:08.018Z,88.20
2023-03-29T17:33:36.348Z,86.48
2023-03-29T17:36:05.077Z,86.22
2023-03-29T17:38:34.233Z,84.80
2023-03-29T17:41:02.837Z,87.22
2023-03-29T17:43:29.806Z,85.94
2023-03-29T17:45:56.807Z,85.75
2023-03-29T17:48:24.645Z,86.22
2023-03-29T17:50:52.063Z,84.94
2023-03-29T17:53:19.206Z,84.89
2023-03-29T17:55:46.195Z,83.36
2023-03-29T17:58:13.178Z,83.40
2023-03-29T18:00:40.124Z,83.69
2023-03-29T18:03:07.259Z,82.92
2023-03-29T18:05:35.704Z,82.77
2023-03-29T18:08:02.987Z,81.97
2023-03-29T18:10:29.882Z,81.23
2023-03-29T18:12:57.003Z,81.55
2023-03-29T18:15:23.960Z,81.17
2023-03-29T18:17:50.930Z,82.66
2023-03-29T18:20:17.990Z,82.11
2023-03-29T18:22:44.947Z,82.15
2023-03-29T18:25:11.918Z,83.66
2023-03-29T18:27:39.959Z,82.68
2023-03-29T18:30:08.904Z,83.51
2023-03-29T18:32:36.720Z,84.31
2023-03-29T18:35:05.029Z,85.00
2023-03-29T18:37:32.190Z,87.06
2023-03-29T18:39:59.091Z,84.29
2023-03-29T18:42:26.210Z,83.92
2023-03-29T18:44:53.047Z,84.11
2023-03-29T18:47:19.996Z,83.55
2023-03-29T18:49:47.289Z,84.10
2023-03-29T18:52:14.262Z,84.10
2023-03-29T18:54:41.735Z,84.18
2023-03-29T18:57:08.784Z,83.91
2023-03-29T18:59:38.664Z,84.98
2023-03-29T19:02:05.637Z,85.55
2023-03-29T19:04:32.578Z,85.84
2023-03-29T19:07:01.460Z,88.93
2023-03-29T19:09:28.349Z,84.70
2023-03-29T19:11:55.414Z,84.26
2023-03-29T19:14:25.172Z,86.02
2023-03-29T19:16:53.152Z,86.52
2023-03-29T19:19:21.454Z,88.65
2023-03-29T19:21:48.980Z,87.07
2023-03-29T19:24:16.537Z,87.97
2023-03-29T19:26:44.510Z,88.05
2023-03-29T19:41:53.633Z,87.08
2023-03-29T19:44:20.511Z,90.44
2023-03-29T19:46:47.424Z,85.54
2023-03-29T19:49:14.427Z,85.32
2023-03-29T19:51:42.416Z,83.64
2023-03-29T19:54:11.471Z,82.28
2023-03-29T19:56:38.645Z,84.32
2023-03-29T19:59:05.711Z,83.13
2023-03-29T20:01:32.774Z,82.91
2023-03-29T20:03:59.845Z,83.46
2023-03-29T20:06:27.052Z,82.77
2023-03-29T20:08:53.953Z,82.79
2023-03-29T20:11:24.135Z,82.60
2023-03-29T20:13:51.198Z,83.43
2023-03-29T20:16:19.550Z,83.76
2023-03-29T20:18:46.705Z,83.75
2023-03-29T20:21:16.819Z,84.29
2023-03-29T20:23:44.422Z,84.28
2023-03-29T20:26:12.193Z,83.72
2023-03-29T20:28:39.555Z,84.34
2023-03-29T20:31:10.605Z,84.17
2023-03-29T20:33:38.113Z,84.40
2023-03-29T20:36:06.651Z,84.72
2023-03-29T20:38:33.838Z,84.53
2023-03-29T20:41:01.026Z,85.30
2023-03-29T20:43:28.019Z,84.97
2023-03-29T20:45:55.507Z,84.50
2023-03-29T20:48:24.381Z,86.28
2023-03-29T20:50:51.939Z,84.10
2023-03-29T20:53:20.749Z,84.38
2023-03-29T20:55:48.093Z,84.83
2023-03-29T20:58:15.907Z,84.61
2023-03-29T21:00:43.928Z,84.71
2023-03-29T21:03:11.336Z,87.31
2023-03-29T21:05:39.017Z,84.94
2023-03-29T21:08:06.114Z,85.42
2023-03-29T21:10:33.098Z,84.67
2023-03-29T21:13:00.444Z,85.15
2023-03-29T21:15:30.523Z,84.94
2023-03-29T21:17:58.145Z,85.64
2023-03-29T21:20:25.700Z,85.57
2023-03-29T21:22:52.619Z,85.93
2023-03-29T21:25:19.841Z,86.14
2023-03-29T21:27:46.859Z,86.33
2023-03-29T21:30:14.036Z,86.19
2023-03-29T21:32:41.377Z,87.03
2023-03-29T21:35:09.252Z,87.41
2023-03-29T21:37:36.184Z,86.92
2023-03-29T21:40:08.598Z,86.97
2023-03-29T21:42:35.877Z,87.64
2023-03-29T21:45:03.446Z,87.90
2023-03-29T21:47:30.670Z,88.32
2023-03-29T21:49:57.585Z,88.25
2023-03-29T21:52:24.531Z,88.86
2023-03-29T21:54:51.373Z,89.14
2023-03-29T21:57:18.330Z,88.91
2023-03-29T21:59:45.401Z,90.65
2023-03-29T22:02:12.422Z,89.19
2023-03-29T22:04:39.401Z,89.47
2023-03-29T22:07:06.913Z,90.89
2023-03-29T22:09:35.221Z,88.97
2023-03-29T22:12:03.607Z,88.71
2023-03-29T22:14:34.879Z,89.02
2023-03-29T22:17:06.347Z,88.89
2023-03-29T22:19:39.348Z,89.42
2023-03-29T22:22:13.795Z,90.06
2023-03-29T22:24:42.138Z,89.83
2023-03-29T22:27:09.739Z,91.14
2023-03-29T22:29:36.735Z,91.05
2023-03-29T22:32:03.956Z,91.27
2023-03-29T22:34:30.997Z,93.81
2023-03-29T22:36:57.785Z,92.63
2023-03-29T22:39:24.607Z,91.98
2023-03-29T22:41:51.601Z,94.98
2023-03-29T22:44:18.460Z,93.41
2023-03-29T22:46:45.642Z,93.58
2023-03-29T22:49:12.738Z,93.60
2023-03-29T22:51:39.618Z,93.36
2023-03-29T22:54:06.502Z,94.07
2023-03-29T22:56:33.398Z,94.53
2023-03-29T22:59:00.285Z,94.65
2023-03-29T23:01:27.282Z,94.91
2023-03-29T23:03:54.235Z,94.70
2023-03-29T23:06:21.201Z,95.43
2023-03-29T23:08:48.099Z,96.00
2023-03-29T23:11:14.982Z,96.55
2023-03-29T23:13:41.975Z,97.06
2023-03-29T23:16:08.871Z,97.14
2023-03-29T23:18:37.619Z,96.81
2023-03-29T23:21:05.954Z,96.54
2023-03-29T23:23:33.709Z,96.80
2023-03-29T23:29:05.505Z,97.73
2023-03-29T23:31:33.847Z,99.06
2023-03-29T23:34:00.846Z,99.66
2023-03-29T23:36:31.183Z,100.00
2023-03-29T23:38:59.734Z,100.00
2023-03-29T23:41:30.780Z,100.00
2023-03-29T23:43:57.961Z,100.00
2023-03-29T23:46:25.337Z,100.00
2023-03-29T23:49:02.431Z,100.00
2023-03-29T23:51:30.624Z,100.00
2023-03-29T23:53:57.606Z,100.00
2023-03-29T23:56:24.529Z,100.00
2023-03-29T23:58:51.837Z,100.00
